No particular awareness of the weather is required.    There are no Weather-warnings


Meteo18 Weather Cam more information Meteo18 Weather Cam


Thunder radar more information blitzortung!


Rain radar more information rain snow radar


Visit our other weather sites:

Template documentation
and downloads

And another site



Weather Underground History page Text

Daily Summary for July 25, 2017 Units:  Both    English   Metric
« Previous Day
Next Day »
Daily Weekly Monthly Yearly Custom
  High: Low: Average:
Temperature: 70.3 °F /  21.3 °C 58.3 °F /  14.6 °C 63.3 °F /  17.4 °C
Dew Point: 58.5 °F /  14.7 °C 55.2 °F /  12.9 °C 56.8 °F /  13.8 °C
Humidity: 94 % 59 % 80 %
Wind Speed: 10 mph /  16.1 km/h - 3.2 mph /  5.2 km/h
Wind Gust: 20 mph /  32.2 km/h - -
Wind:- - WNW
Pressure: 30.1 in /  1018.5 hPa 30 in /  1015.5 hPa -
Precipitation: 0.01 in /  0.3 mm    
Historical Graphs
 
 
Tabular Data for July 25, 2017
Time Temperature Dew Point Pressure Wind Wind Speed Wind Gust Humidity Rainfall Rate (Hourly)
00:02 60.1 °F /  15.6 °C 56.1 °F /  13.4 °C 30.1 in /  1018.5 hPa WNW 6 mph /  9.7 km/h 12 mph /  19.3 km/h 87 % 0 in /  0.0 mm
00:12 59.7 °F /  15.4 °C 56.1 °F /  13.4 °C 30.1 in /  1018.5 hPa WNW 2 mph /  3.2 km/h 15 mph /  24.1 km/h 88 % 0 in /  0.0 mm
00:17 59.9 °F /  15.5 °C 56.3 °F /  13.5 °C 30.1 in /  1018.5 hPa WNW 6 mph /  9.7 km/h 14 mph /  22.5 km/h 88 % 0 in /  0.0 mm
00:22 59.9 °F /  15.5 °C 56.3 °F /  13.5 °C 30.1 in /  1018.5 hPa WNW 5 mph /  8.0 km/h 10 mph /  16.1 km/h 88 % 0 in /  0.0 mm
00:32 60.1 °F /  15.6 °C 56.1 °F /  13.4 °C 30.1 in /  1018.5 hPa NW 3 mph /  4.8 km/h 11 mph /  17.7 km/h 87 % 0 in /  0.0 mm
00:37 60.1 °F /  15.6 °C 56.1 °F /  13.4 °C 30.1 in /  1018.5 hPa WNW 5 mph /  8.0 km/h 11 mph /  17.7 km/h 87 % 0 in /  0.0 mm
00:42 60.3 °F /  15.7 °C 56.1 °F /  13.4 °C 30.1 in /  1018.5 hPa West 4 mph /  6.4 km/h 11 mph /  17.7 km/h 86 % 0 in /  0.0 mm
00:47 60.3 °F /  15.7 °C 56.1 °F /  13.4 °C 30.1 in /  1018.5 hPa NNW 1 mph /  1.6 km/h 11 mph /  17.7 km/h 86 % 0 in /  0.0 mm
00:57 60.6 °F /  15.9 °C 55.8 °F /  13.2 °C 30.1 in /  1018.5 hPa WNW 3 mph /  4.8 km/h 20 mph /  32.2 km/h 84 % 0 in /  0.0 mm
01:02 60.6 °F /  15.9 °C 55.8 °F /  13.2 °C 30.1 in /  1018.5 hPa WNW 10 mph /  16.1 km/h 20 mph /  32.2 km/h 84 % 0 in /  0.0 mm
01:12 60.4 °F /  15.8 °C 56.3 °F /  13.5 °C 30.1 in /  1018.5 hPa WNW 4 mph /  6.4 km/h 20 mph /  32.2 km/h 86 % 0 in /  0.0 mm
01:17 60.4 °F /  15.8 °C 56.3 °F /  13.5 °C 30.1 in /  1018.5 hPa West 6 mph /  9.7 km/h 11 mph /  17.7 km/h 86 % 0 in /  0.0 mm
01:22 60.4 °F /  15.8 °C 56.3 °F /  13.5 °C 30.1 in /  1018.2 hPa WNW 8 mph /  12.9 km/h 11 mph /  17.7 km/h 86 % 0 in /  0.0 mm
01:32 60.4 °F /  15.8 °C 56.3 °F /  13.5 °C 30.1 in /  1018.2 hPa WNW 1 mph /  1.6 km/h 8 mph /  12.9 km/h 86 % 0 in /  0.0 mm
01:37 60.4 °F /  15.8 °C 56.3 °F /  13.5 °C 30.1 in /  1018.2 hPa NW 2 mph /  3.2 km/h 9 mph /  14.5 km/h 86 % 0 in /  0.0 mm
01:42 60.3 °F /  15.7 °C 56.1 °F /  13.4 °C 30.1 in /  1018.2 hPa NW 2 mph /  3.2 km/h 9 mph /  14.5 km/h 86 % 0 in /  0.0 mm
01:52 60.3 °F /  15.7 °C 56.1 °F /  13.4 °C 30.1 in /  1018.2 hPa NW 1 mph /  1.6 km/h 9 mph /  14.5 km/h 86 % 0 in /  0.0 mm
01:57 60.3 °F /  15.7 °C 56.1 °F /  13.4 °C 30.1 in /  1018.2 hPa WNW 5 mph /  8.0 km/h 7 mph /  11.3 km/h 86 % 0 in /  0.0 mm
02:02 60.3 °F /  15.7 °C 56.1 °F /  13.4 °C 30.1 in /  1018.2 hPa NNW 2 mph /  3.2 km/h 7 mph /  11.3 km/h 86 % 0 in /  0.0 mm
02:12 60.3 °F /  15.7 °C 56.1 °F /  13.4 °C 30.1 in /  1018.2 hPa WNW 2 mph /  3.2 km/h 7 mph /  11.3 km/h 86 % 0 in /  0.0 mm
02:17 60.3 °F /  15.7 °C 56.1 °F /  13.4 °C 30.1 in /  1018.2 hPa WNW 1 mph /  1.6 km/h 6 mph /  9.7 km/h 86 % 0 in /  0.0 mm
02:22 60.3 °F /  15.7 °C 56.1 °F /  13.4 °C 30.1 in /  1018.2 hPa WNW 2 mph /  3.2 km/h 6 mph /  9.7 km/h 86 % 0 in /  0.0 mm
02:32 60.3 °F /  15.7 °C 56.1 °F /  13.4 °C 30.1 in /  1018.2 hPa NW 1 mph /  1.6 km/h 7 mph /  11.3 km/h 86 % 0 in /  0.0 mm
02:42 60.3 °F /  15.7 °C 55.8 °F /  13.2 °C 30.1 in /  1018.2 hPa NNW 5 mph /  8.0 km/h 9 mph /  14.5 km/h 85 % 0 in /  0.0 mm
02:47 60.4 °F /  15.8 °C 55.9 °F /  13.3 °C 30.1 in /  1018.2 hPa West 4 mph /  6.4 km/h 10 mph /  16.1 km/h 85 % 0 in /  0.0 mm
02:52 60.4 °F /  15.8 °C 55.9 °F /  13.3 °C 30.1 in /  1017.8 hPa NNW 3 mph /  4.8 km/h 10 mph /  16.1 km/h 85 % 0 in /  0.0 mm
02:57 60.3 °F /  15.7 °C 55.8 °F /  13.2 °C 30.1 in /  1017.8 hPa WNW 3 mph /  4.8 km/h 11 mph /  17.7 km/h 85 % 0 in /  0.0 mm
03:02 60.3 °F /  15.7 °C 55.8 °F /  13.2 °C 30.1 in /  1017.8 hPa Calm   11 mph /  17.7 km/h 85 % 0 in /  0.0 mm
03:12 60.4 °F /  15.8 °C 55.6 °F /  13.1 °C 30.1 in /  1017.8 hPa West 4 mph /  6.4 km/h 8 mph /  12.9 km/h 84 % 0 in /  0.0 mm
03:17 60.4 °F /  15.8 °C 55.6 °F /  13.1 °C 30.1 in /  1017.8 hPa NW 3 mph /  4.8 km/h 9 mph /  14.5 km/h 84 % 0 in /  0.0 mm
03:22 60.4 °F /  15.8 °C 55.6 °F /  13.1 °C 30.1 in /  1017.8 hPa WNW 6 mph /  9.7 km/h 9 mph /  14.5 km/h 84 % 0 in /  0.0 mm
03:32 60.3 °F /  15.7 °C 55.8 °F /  13.2 °C 30.1 in /  1017.5 hPa WNW 3 mph /  4.8 km/h 9 mph /  14.5 km/h 85 % 0 in /  0.0 mm
03:42 60.3 °F /  15.7 °C 56.1 °F /  13.4 °C 30.1 in /  1017.5 hPa West 3 mph /  4.8 km/h 9 mph /  14.5 km/h 86 % 0 in /  0.0 mm
03:47 60.1 °F /  15.6 °C 55.9 °F /  13.3 °C 30.1 in /  1017.5 hPa WNW 7 mph /  11.3 km/h 10 mph /  16.1 km/h 86 % 0 in /  0.0 mm
03:52 60.1 °F /  15.6 °C 55.9 °F /  13.3 °C 30.1 in /  1017.5 hPa WNW 6 mph /  9.7 km/h 10 mph /  16.1 km/h 86 % 0 in /  0.0 mm
03:57 60.1 °F /  15.6 °C 56.1 °F /  13.4 °C 30.1 in /  1017.5 hPa WNW 5 mph /  8.0 km/h 10 mph /  16.1 km/h 87 % 0 in /  0.0 mm
04:02 59.9 °F /  15.5 °C 55.9 °F /  13.3 °C 30.1 in /  1017.5 hPa NW 3 mph /  4.8 km/h 10 mph /  16.1 km/h 87 % 0 in /  0.0 mm
04:12 59.7 °F /  15.4 °C 56.1 °F /  13.4 °C 30.1 in /  1017.5 hPa WNW 8 mph /  12.9 km/h 10 mph /  16.1 km/h 88 % 0 in /  0.0 mm
04:17 59.5 °F /  15.3 °C 55.9 °F /  13.3 °C 30.1 in /  1017.5 hPa NW 5 mph /  8.0 km/h 10 mph /  16.1 km/h 88 % 0 in /  0.0 mm
04:22 59.4 °F /  15.2 °C 56.1 °F /  13.4 °C 30.1 in /  1017.5 hPa WNW 3 mph /  4.8 km/h 10 mph /  16.1 km/h 89 % 0 in /  0.0 mm
04:32 59 °F /  15.0 °C 56.1 °F /  13.4 °C 30.1 in /  1017.5 hPa WNW 3 mph /  4.8 km/h 9 mph /  14.5 km/h 90 % 0 in /  0.0 mm
04:37 58.8 °F /  14.9 °C 56.1 °F /  13.4 °C 30.1 in /  1017.5 hPa WNW 6 mph /  9.7 km/h 10 mph /  16.1 km/h 91 % 0 in /  0.0 mm
04:42 58.6 °F /  14.8 °C 55.9 °F /  13.3 °C 30 in /  1017.2 hPa WNW 4 mph /  6.4 km/h 10 mph /  16.1 km/h 91 % 0 in /  0.0 mm
04:47 58.5 °F /  14.7 °C 56.1 °F /  13.4 °C 30 in /  1017.2 hPa WSW 3 mph /  4.8 km/h 9 mph /  14.5 km/h 92 % 0 in /  0.0 mm
04:52 58.5 °F /  14.7 °C 56.1 °F /  13.4 °C 30 in /  1017.2 hPa WNW 1 mph /  1.6 km/h 9 mph /  14.5 km/h 92 % 0 in /  0.0 mm
05:02 58.3 °F /  14.6 °C 56.3 °F /  13.5 °C 30 in /  1017.2 hPa WNW 1 mph /  1.6 km/h 6 mph /  9.7 km/h 93 % 0.01 in /  0.3 mm
05:07 58.3 °F /  14.6 °C 56.3 °F /  13.5 °C 30 in /  1017.2 hPa WNW 1 mph /  1.6 km/h 5 mph /  8.0 km/h 93 % 0.01 in /  0.3 mm
05:12 58.3 °F /  14.6 °C 56.3 °F /  13.5 °C 30 in /  1017.2 hPa West 1 mph /  1.6 km/h 5 mph /  8.0 km/h 93 % 0.01 in /  0.3 mm
05:17 58.3 °F /  14.6 °C 56.3 °F /  13.5 °C 30 in /  1017.2 hPa WSW 1 mph /  1.6 km/h 3 mph /  4.8 km/h 93 % 0.01 in /  0.3 mm
05:22 58.3 °F /  14.6 °C 56.3 °F /  13.5 °C 30 in /  1017.2 hPa West 1 mph /  1.6 km/h 3 mph /  4.8 km/h 93 % 0.01 in /  0.3 mm
05:32 58.3 °F /  14.6 °C 56.3 °F /  13.5 °C 30 in /  1017.2 hPa West 1 mph /  1.6 km/h 3 mph /  4.8 km/h 93 % 0.01 in /  0.3 mm
05:42 58.3 °F /  14.6 °C 56.3 °F /  13.5 °C 30 in /  1017.2 hPa Calm   4 mph /  6.4 km/h 93 % 0.01 in /  0.3 mm
05:52 58.3 °F /  14.6 °C 56.3 °F /  13.5 °C 30 in /  1017.2 hPa West 1 mph /  1.6 km/h 4 mph /  6.4 km/h 93 % 0.01 in /  0.3 mm
06:02 58.3 °F /  14.6 °C 56.3 °F /  13.5 °C 30 in /  1017.2 hPa Calm   4 mph /  6.4 km/h 93 % 0 in /  0.0 mm
06:12 58.3 °F /  14.6 °C 56.5 °F /  13.6 °C 30 in /  1017.2 hPa Calm   2 mph /  3.2 km/h 94 % 0 in /  0.0 mm
06:17 58.3 °F /  14.6 °C 56.5 °F /  13.6 °C 30 in /  1017.2 hPa Calm   4 mph /  6.4 km/h 94 % 0 in /  0.0 mm
06:22 58.3 °F /  14.6 °C 56.5 °F /  13.6 °C 30 in /  1017.2 hPa Calm   4 mph /  6.4 km/h 94 % 0 in /  0.0 mm
06:27 58.5 °F /  14.7 °C 56.7 °F /  13.7 °C 30 in /  1017.2 hPa SW 1 mph /  1.6 km/h 2 mph /  3.2 km/h 94 % 0 in /  0.0 mm
06:32 58.5 °F /  14.7 °C 56.7 °F /  13.7 °C 30 in /  1017.2 hPa West 3 mph /  4.8 km/h 3 mph /  4.8 km/h 94 % 0 in /  0.0 mm
06:37 58.6 °F /  14.8 °C 56.7 °F /  13.7 °C 30 in /  1017.2 hPa WNW 1 mph /  1.6 km/h 2 mph /  3.2 km/h 93 % 0 in /  0.0 mm
06:42 58.6 °F /  14.8 °C 56.7 °F /  13.7 °C 30 in /  1017.2 hPa West 3 mph /  4.8 km/h 5 mph /  8.0 km/h 93 % 0 in /  0.0 mm
06:52 58.8 °F /  14.9 °C 56.8 °F /  13.8 °C 30 in /  1017.2 hPa West 1 mph /  1.6 km/h 5 mph /  8.0 km/h 93 % 0 in /  0.0 mm
06:57 58.8 °F /  14.9 °C 56.8 °F /  13.8 °C 30 in /  1016.8 hPa West 1 mph /  1.6 km/h 7 mph /  11.3 km/h 93 % 0 in /  0.0 mm
07:02 58.8 °F /  14.9 °C 56.8 °F /  13.8 °C 30 in /  1016.8 hPa WNW 2 mph /  3.2 km/h 7 mph /  11.3 km/h 93 % 0 in /  0.0 mm
07:07 59 °F /  15.0 °C 57 °F /  13.9 °C 30 in /  1017.2 hPa WSW 1 mph /  1.6 km/h 7 mph /  11.3 km/h 93 % 0 in /  0.0 mm
07:12 59 °F /  15.0 °C 57 °F /  13.9 °C 30 in /  1016.8 hPa WNW 4 mph /  6.4 km/h 4 mph /  6.4 km/h 93 % 0 in /  0.0 mm
07:17 59.2 °F /  15.1 °C 57.2 °F /  14.0 °C 30 in /  1016.8 hPa WNW 5 mph /  8.0 km/h 5 mph /  8.0 km/h 93 % 0 in /  0.0 mm
07:22 59.2 °F /  15.1 °C 57.2 °F /  14.0 °C 30 in /  1016.8 hPa North 1 mph /  1.6 km/h 6 mph /  9.7 km/h 93 % 0 in /  0.0 mm
07:32 59.4 °F /  15.2 °C 57.4 °F /  14.1 °C 30 in /  1016.8 hPa WNW 4 mph /  6.4 km/h 6 mph /  9.7 km/h 93 % 0 in /  0.0 mm
07:42 59.5 °F /  15.3 °C 57.6 °F /  14.2 °C 30 in /  1016.8 hPa WNW 1 mph /  1.6 km/h 7 mph /  11.3 km/h 93 % 0 in /  0.0 mm
07:52 59.5 °F /  15.3 °C 57.2 °F /  14.0 °C 30 in /  1016.8 hPa WNW 1 mph /  1.6 km/h 5 mph /  8.0 km/h 92 % 0 in /  0.0 mm
08:02 59.7 °F /  15.4 °C 57.4 °F /  14.1 °C 30 in /  1016.8 hPa Calm   8 mph /  12.9 km/h 92 % 0 in /  0.0 mm
08:12 59.9 °F /  15.5 °C 57.6 °F /  14.2 °C 30 in /  1016.8 hPa NW 5 mph /  8.0 km/h 8 mph /  12.9 km/h 92 % 0 in /  0.0 mm
08:17 59.9 °F /  15.5 °C 57.6 °F /  14.2 °C 30 in /  1017.2 hPa WNW 4 mph /  6.4 km/h 8 mph /  12.9 km/h 92 % 0 in /  0.0 mm
08:22 59.9 °F /  15.5 °C 57.6 °F /  14.2 °C 30 in /  1017.2 hPa Calm   8 mph /  12.9 km/h 92 % 0 in /  0.0 mm
08:27 59.9 °F /  15.5 °C 57.6 °F /  14.2 °C 30 in /  1017.2 hPa WNW 3 mph /  4.8 km/h 8 mph /  12.9 km/h 92 % 0 in /  0.0 mm
08:32 60.1 °F /  15.6 °C 57.7 °F /  14.3 °C 30 in /  1017.2 hPa NNW 5 mph /  8.0 km/h 8 mph /  12.9 km/h 92 % 0 in /  0.0 mm
08:37 60.1 °F /  15.6 °C 57.4 °F /  14.1 °C 30 in /  1017.2 hPa West 2 mph /  3.2 km/h 8 mph /  12.9 km/h 91 % 0 in /  0.0 mm
08:42 60.1 °F /  15.6 °C 57.4 °F /  14.1 °C 30 in /  1017.2 hPa WNW 2 mph /  3.2 km/h 9 mph /  14.5 km/h 91 % 0 in /  0.0 mm
08:47 60.1 °F /  15.6 °C 57.4 °F /  14.1 °C 30 in /  1017.2 hPa West 2 mph /  3.2 km/h 9 mph /  14.5 km/h 91 % 0 in /  0.0 mm
08:57 61.2 °F /  16.2 °C 58.5 °F /  14.7 °C 30 in /  1017.2 hPa WNW 5 mph /  8.0 km/h 11 mph /  17.7 km/h 91 % 0 in /  0.0 mm
09:02 61.3 °F /  16.3 °C 58.1 °F /  14.5 °C 30 in /  1017.2 hPa West 5 mph /  8.0 km/h 9 mph /  14.5 km/h 89 % 0 in /  0.0 mm
09:12 61.3 °F /  16.3 °C 58.1 °F /  14.5 °C 30 in /  1017.2 hPa WNW 3 mph /  4.8 km/h 10 mph /  16.1 km/h 89 % 0 in /  0.0 mm
09:17 61.3 °F /  16.3 °C 57.7 °F /  14.3 °C 30 in /  1017.2 hPa WNW 4 mph /  6.4 km/h 10 mph /  16.1 km/h 88 % 0 in /  0.0 mm
09:22 61.3 °F /  16.3 °C 57.7 °F /  14.3 °C 30 in /  1017.2 hPa NW 3 mph /  4.8 km/h 10 mph /  16.1 km/h 88 % 0 in /  0.0 mm
09:32 61.5 °F /  16.4 °C 57.9 °F /  14.4 °C 30 in /  1017.2 hPa WNW 1 mph /  1.6 km/h 12 mph /  19.3 km/h 88 % 0 in /  0.0 mm
09:37 61.9 °F /  16.6 °C 57.9 °F /  14.4 °C 30 in /  1017.2 hPa WNW 4 mph /  6.4 km/h 12 mph /  19.3 km/h 87 % 0 in /  0.0 mm
09:42 61.5 °F /  16.4 °C 57.6 °F /  14.2 °C 30 in /  1017.2 hPa WNW 7 mph /  11.3 km/h 10 mph /  16.1 km/h 87 % 0 in /  0.0 mm
09:47 61.5 °F /  16.4 °C 57.6 °F /  14.2 °C 30 in /  1017.2 hPa NW 2 mph /  3.2 km/h 10 mph /  16.1 km/h 87 % 0 in /  0.0 mm
09:52 61.9 °F /  16.6 °C 57.6 °F /  14.2 °C 30 in /  1017.2 hPa NNW 5 mph /  8.0 km/h 10 mph /  16.1 km/h 86 % 0 in /  0.0 mm
10:02 62.1 °F /  16.7 °C 57.6 °F /  14.2 °C 30 in /  1017.2 hPa WNW 6 mph /  9.7 km/h 10 mph /  16.1 km/h 85 % 0 in /  0.0 mm
10:12 62.2 °F /  16.8 °C 57.7 °F /  14.3 °C 30 in /  1017.2 hPa West 1 mph /  1.6 km/h 10 mph /  16.1 km/h 85 % 0 in /  0.0 mm
10:17 62.4 °F /  16.9 °C 57.9 °F /  14.4 °C 30 in /  1017.2 hPa NW 4 mph /  6.4 km/h 10 mph /  16.1 km/h 85 % 0 in /  0.0 mm
10:22 62.4 °F /  16.9 °C 57.2 °F /  14.0 °C 30 in /  1017.2 hPa WNW 2 mph /  3.2 km/h 8 mph /  12.9 km/h 83 % 0 in /  0.0 mm
10:32 63 °F /  17.2 °C 57 °F /  13.9 °C 30 in /  1017.2 hPa WNW 2 mph /  3.2 km/h 11 mph /  17.7 km/h 81 % 0 in /  0.0 mm
10:42 63.7 °F /  17.6 °C 57 °F /  13.9 °C 30 in /  1017.2 hPa WNW 5 mph /  8.0 km/h 12 mph /  19.3 km/h 79 % 0 in /  0.0 mm
10:47 63.7 °F /  17.6 °C 57 °F /  13.9 °C 30 in /  1017.2 hPa West 6 mph /  9.7 km/h 12 mph /  19.3 km/h 79 % 0 in /  0.0 mm
10:52 63.9 °F /  17.7 °C 56.8 °F /  13.8 °C 30 in /  1017.2 hPa WNW 6 mph /  9.7 km/h 13 mph /  20.9 km/h 78 % 0 in /  0.0 mm
10:57 63.9 °F /  17.7 °C 56.8 °F /  13.8 °C 30 in /  1017.2 hPa WNW 9 mph /  14.5 km/h 13 mph /  20.9 km/h 78 % 0 in /  0.0 mm
11:02 63.7 °F /  17.6 °C 56.3 °F /  13.5 °C 30 in /  1017.2 hPa WNW 5 mph /  8.0 km/h 11 mph /  17.7 km/h 77 % 0 in /  0.0 mm
11:12 63.3 °F /  17.4 °C 56.7 °F /  13.7 °C 30 in /  1017.2 hPa NW 10 mph /  16.1 km/h 14 mph /  22.5 km/h 79 % 0 in /  0.0 mm
11:17 63.7 °F /  17.6 °C 57.4 °F /  14.1 °C 30 in /  1017.2 hPa WNW 2 mph /  3.2 km/h 14 mph /  22.5 km/h 80 % 0 in /  0.0 mm
11:22 64 °F /  17.8 °C 57.4 °F /  14.1 °C 30 in /  1017.2 hPa NNE 2 mph /  3.2 km/h 12 mph /  19.3 km/h 79 % 0 in /  0.0 mm
11:27 64.4 °F /  18.0 °C 57.4 °F /  14.1 °C 30 in /  1017.2 hPa WNW 5 mph /  8.0 km/h 12 mph /  19.3 km/h 78 % 0 in /  0.0 mm
11:32 64.8 °F /  18.2 °C 57.4 °F /  14.1 °C 30 in /  1016.8 hPa WNW 2 mph /  3.2 km/h 9 mph /  14.5 km/h 77 % 0 in /  0.0 mm
11:42 64 °F /  17.8 °C 56.7 °F /  13.7 °C 30 in /  1017.2 hPa NW 4 mph /  6.4 km/h 13 mph /  20.9 km/h 77 % 0 in /  0.0 mm
11:47 64 °F /  17.8 °C 56.7 °F /  13.7 °C 30 in /  1017.2 hPa WNW 6 mph /  9.7 km/h 13 mph /  20.9 km/h 77 % 0 in /  0.0 mm
11:52 63.7 °F /  17.6 °C 56.7 °F /  13.7 °C 30 in /  1017.2 hPa NNW 2 mph /  3.2 km/h 13 mph /  20.9 km/h 78 % 0 in /  0.0 mm
12:02 62.8 °F /  17.1 °C 56.8 °F /  13.8 °C 30 in /  1017.2 hPa WNW 3 mph /  4.8 km/h 10 mph /  16.1 km/h 81 % 0 in /  0.0 mm
12:12 62.4 °F /  16.9 °C 57.6 °F /  14.2 °C 30 in /  1017.2 hPa WNW 2 mph /  3.2 km/h 10 mph /  16.1 km/h 84 % 0 in /  0.0 mm
12:17 62.8 °F /  17.1 °C 57.9 °F /  14.4 °C 30 in /  1017.2 hPa NNW 1 mph /  1.6 km/h 10 mph /  16.1 km/h 84 % 0 in /  0.0 mm
12:22 63 °F /  17.2 °C 58.1 °F /  14.5 °C 30 in /  1017.2 hPa WNW 2 mph /  3.2 km/h 6 mph /  9.7 km/h 84 % 0 in /  0.0 mm
12:32 63.7 °F /  17.6 °C 57.7 °F /  14.3 °C 30 in /  1017.2 hPa Calm   6 mph /  9.7 km/h 81 % 0 in /  0.0 mm
12:37 63.9 °F /  17.7 °C 57.2 °F /  14.0 °C 30 in /  1017.2 hPa NW 4 mph /  6.4 km/h 8 mph /  12.9 km/h 79 % 0 in /  0.0 mm
12:42 63.9 °F /  17.7 °C 57.6 °F /  14.2 °C 30 in /  1017.2 hPa NW 6 mph /  9.7 km/h 8 mph /  12.9 km/h 80 % 0 in /  0.0 mm
12:47 63.7 °F /  17.6 °C 57.4 °F /  14.1 °C 30 in /  1017.2 hPa NW 3 mph /  4.8 km/h 8 mph /  12.9 km/h 80 % 0 in /  0.0 mm
12:52 63.7 °F /  17.6 °C 57.7 °F /  14.3 °C 30 in /  1017.2 hPa NW 3 mph /  4.8 km/h 11 mph /  17.7 km/h 81 % 0 in /  0.0 mm
13:02 63.7 °F /  17.6 °C 58.1 °F /  14.5 °C 30 in /  1017.2 hPa North 7 mph /  11.3 km/h 11 mph /  17.7 km/h 82 % 0 in /  0.0 mm
13:07 63.7 °F /  17.6 °C 57.7 °F /  14.3 °C 30 in /  1017.2 hPa NW 5 mph /  8.0 km/h 7 mph /  11.3 km/h 81 % 0 in /  0.0 mm
13:12 63.7 °F /  17.6 °C 57.7 °F /  14.3 °C 30 in /  1017.2 hPa WNW 6 mph /  9.7 km/h 7 mph /  11.3 km/h 81 % 0 in /  0.0 mm
13:17 63.7 °F /  17.6 °C 58.1 °F /  14.5 °C 30 in /  1017.2 hPa NW 2 mph /  3.2 km/h 7 mph /  11.3 km/h 82 % 0 in /  0.0 mm
13:22 63.9 °F /  17.7 °C 57.9 °F /  14.4 °C 30 in /  1017.2 hPa WNW 4 mph /  6.4 km/h 8 mph /  12.9 km/h 81 % 0 in /  0.0 mm
13:32 64 °F /  17.8 °C 58.1 °F /  14.5 °C 30 in /  1016.8 hPa NW 3 mph /  4.8 km/h 6 mph /  9.7 km/h 81 % 0 in /  0.0 mm
13:42 64.2 °F /  17.9 °C 57.9 °F /  14.4 °C 30 in /  1017.2 hPa WNW 8 mph /  12.9 km/h 10 mph /  16.1 km/h 80 % 0 in /  0.0 mm
13:52 64.2 °F /  17.9 °C 57.6 °F /  14.2 °C 30 in /  1016.8 hPa WNW 6 mph /  9.7 km/h 9 mph /  14.5 km/h 79 % 0 in /  0.0 mm
13:57 64.2 °F /  17.9 °C 57.6 °F /  14.2 °C 30 in /  1016.8 hPa NW 3 mph /  4.8 km/h 9 mph /  14.5 km/h 79 % 0 in /  0.0 mm
14:02 64.4 °F /  18.0 °C 57.7 °F /  14.3 °C 30 in /  1016.8 hPa NW 2 mph /  3.2 km/h 11 mph /  17.7 km/h 79 % 0 in /  0.0 mm
14:07 64.8 °F /  18.2 °C 57.4 °F /  14.1 °C 30 in /  1016.8 hPa WNW 8 mph /  12.9 km/h 11 mph /  17.7 km/h 77 % 0 in /  0.0 mm
14:12 65.1 °F /  18.4 °C 57.7 °F /  14.3 °C 30 in /  1016.8 hPa WNW 5 mph /  8.0 km/h 11 mph /  17.7 km/h 77 % 0 in /  0.0 mm
14:17 65.7 °F /  18.7 °C 57.9 °F /  14.4 °C 30 in /  1016.8 hPa NNW 2 mph /  3.2 km/h 11 mph /  17.7 km/h 76 % 0 in /  0.0 mm
14:27 66.4 °F /  19.1 °C 56.7 °F /  13.7 °C 30 in /  1016.5 hPa West 4 mph /  6.4 km/h 11 mph /  17.7 km/h 71 % 0 in /  0.0 mm
14:32 66.6 °F /  19.2 °C 56.8 °F /  13.8 °C 30 in /  1016.5 hPa WNW 8 mph /  12.9 km/h 11 mph /  17.7 km/h 71 % 0 in /  0.0 mm
14:42 66.4 °F /  19.1 °C 57.4 °F /  14.1 °C 30 in /  1016.8 hPa WNW 2 mph /  3.2 km/h 11 mph /  17.7 km/h 73 % 0 in /  0.0 mm
14:47 66.4 °F /  19.1 °C 57 °F /  13.9 °C 30 in /  1016.5 hPa SW 4 mph /  6.4 km/h 11 mph /  17.7 km/h 72 % 0 in /  0.0 mm
14:52 66.9 °F /  19.4 °C 58.3 °F /  14.6 °C 30 in /  1016.5 hPa WNW 3 mph /  4.8 km/h 9 mph /  14.5 km/h 74 % 0 in /  0.0 mm
15:02 67.8 °F /  19.9 °C 56.8 °F /  13.8 °C 30 in /  1016.5 hPa WNW 4 mph /  6.4 km/h 9 mph /  14.5 km/h 68 % 0 in /  0.0 mm
15:07 67.6 °F /  19.8 °C 57 °F /  13.9 °C 30 in /  1016.5 hPa Calm   8 mph /  12.9 km/h 69 % 0 in /  0.0 mm
15:12 67.5 °F /  19.7 °C 57 °F /  13.9 °C 30 in /  1016.5 hPa WNW 4 mph /  6.4 km/h 8 mph /  12.9 km/h 69 % 0 in /  0.0 mm
15:17 67.1 °F /  19.5 °C 56.1 °F /  13.4 °C 30 in /  1016.5 hPa West 4 mph /  6.4 km/h 8 mph /  12.9 km/h 68 % 0 in /  0.0 mm
15:22 66.4 °F /  19.1 °C 57 °F /  13.9 °C 30 in /  1016.5 hPa WNW 7 mph /  11.3 km/h 8 mph /  12.9 km/h 72 % 0 in /  0.0 mm
15:27 65.5 °F /  18.6 °C 57 °F /  13.9 °C 30 in /  1016.5 hPa West 10 mph /  16.1 km/h 13 mph /  20.9 km/h 74 % 0 in /  0.0 mm
15:32 65.1 °F /  18.4 °C 57.7 °F /  14.3 °C 30 in /  1016.5 hPa West 4 mph /  6.4 km/h 13 mph /  20.9 km/h 77 % 0 in /  0.0 mm
15:37 65.1 °F /  18.4 °C 57.7 °F /  14.3 °C 30 in /  1016.5 hPa WNW 8 mph /  12.9 km/h 13 mph /  20.9 km/h 77 % 0 in /  0.0 mm
15:42 65.3 °F /  18.5 °C 57.9 °F /  14.4 °C 30 in /  1016.5 hPa West 4 mph /  6.4 km/h 13 mph /  20.9 km/h 77 % 0 in /  0.0 mm
15:47 65.5 °F /  18.6 °C 58.1 °F /  14.5 °C 30 in /  1016.5 hPa NW 5 mph /  8.0 km/h 10 mph /  16.1 km/h 77 % 0 in /  0.0 mm
15:52 65.8 °F /  18.8 °C 58.1 °F /  14.5 °C 30 in /  1016.5 hPa SW 4 mph /  6.4 km/h 10 mph /  16.1 km/h 76 % 0 in /  0.0 mm
16:02 65.7 °F /  18.7 °C 57.9 °F /  14.4 °C 30 in /  1016.5 hPa WNW 7 mph /  11.3 km/h 8 mph /  12.9 km/h 76 % 0 in /  0.0 mm
16:12 65.1 °F /  18.4 °C 57.7 °F /  14.3 °C 30 in /  1016.5 hPa Calm   12 mph /  19.3 km/h 77 % 0 in /  0.0 mm
16:17 65.5 °F /  18.6 °C 57.7 °F /  14.3 °C 30 in /  1016.1 hPa West 2 mph /  3.2 km/h 12 mph /  19.3 km/h 76 % 0 in /  0.0 mm
16:22 66 °F /  18.9 °C 57.6 °F /  14.2 °C 30 in /  1016.1 hPa WNW 5 mph /  8.0 km/h 11 mph /  17.7 km/h 74 % 0 in /  0.0 mm
16:32 67.3 °F /  19.6 °C 57.9 °F /  14.4 °C 30 in /  1016.1 hPa WNW 9 mph /  14.5 km/h 9 mph /  14.5 km/h 72 % 0 in /  0.0 mm
16:37 68 °F /  20.0 °C 57.9 °F /  14.4 °C 30 in /  1016.1 hPa SW 2 mph /  3.2 km/h 11 mph /  17.7 km/h 70 % 0 in /  0.0 mm
16:42 68.4 °F /  20.2 °C 57.7 °F /  14.3 °C 30 in /  1016.1 hPa WNW 7 mph /  11.3 km/h 12 mph /  19.3 km/h 69 % 0 in /  0.0 mm
16:52 68.7 °F /  20.4 °C 55.6 °F /  13.1 °C 30 in /  1016.1 hPa WNW 8 mph /  12.9 km/h 14 mph /  22.5 km/h 63 % 0 in /  0.0 mm
16:57 69.1 °F /  20.6 °C 56.5 °F /  13.6 °C 30 in /  1016.1 hPa NNW 5 mph /  8.0 km/h 15 mph /  24.1 km/h 64 % 0 in /  0.0 mm
17:02 69.3 °F /  20.7 °C 56.1 °F /  13.4 °C 30 in /  1015.8 hPa NNW 5 mph /  8.0 km/h 15 mph /  24.1 km/h 63 % 0 in /  0.0 mm
17:12 69.6 °F /  20.9 °C 55.9 °F /  13.3 °C 30 in /  1015.8 hPa WNW 8 mph /  12.9 km/h 15 mph /  24.1 km/h 62 % 0 in /  0.0 mm
17:17 69.4 °F /  20.8 °C 55.9 °F /  13.3 °C 30 in /  1015.8 hPa NW 4 mph /  6.4 km/h 16 mph /  25.7 km/h 62 % 0 in /  0.0 mm
17:22 69.3 °F /  20.7 °C 55.8 °F /  13.2 °C 30 in /  1015.8 hPa North 3 mph /  4.8 km/h 16 mph /  25.7 km/h 62 % 0 in /  0.0 mm
17:32 68.9 °F /  20.5 °C 55.8 °F /  13.2 °C 30 in /  1015.8 hPa WNW 6 mph /  9.7 km/h 13 mph /  20.9 km/h 63 % 0 in /  0.0 mm
17:37 69.1 °F /  20.6 °C 55.9 °F /  13.3 °C 30 in /  1015.8 hPa West 7 mph /  11.3 km/h 13 mph /  20.9 km/h 63 % 0 in /  0.0 mm
17:42 69.3 °F /  20.7 °C 56.1 °F /  13.4 °C 30 in /  1015.8 hPa West 5 mph /  8.0 km/h 13 mph /  20.9 km/h 63 % 0 in /  0.0 mm
17:47 70 °F /  21.1 °C 56.8 °F /  13.8 °C 30 in /  1015.8 hPa SW 7 mph /  11.3 km/h 14 mph /  22.5 km/h 63 % 0 in /  0.0 mm
17:52 70.2 °F /  21.2 °C 57 °F /  13.9 °C 30 in /  1015.8 hPa West 5 mph /  8.0 km/h 15 mph /  24.1 km/h 63 % 0 in /  0.0 mm
17:57 70.3 °F /  21.3 °C 56.7 °F /  13.7 °C 30 in /  1015.8 hPa NNW 6 mph /  9.7 km/h 15 mph /  24.1 km/h 62 % 0 in /  0.0 mm
18:02 70.2 °F /  21.2 °C 56.5 °F /  13.6 °C 30 in /  1015.8 hPa West 5 mph /  8.0 km/h 15 mph /  24.1 km/h 62 % 0 in /  0.0 mm
18:12 69.6 °F /  20.9 °C 55.9 °F /  13.3 °C 30 in /  1016.1 hPa NNW 7 mph /  11.3 km/h 12 mph /  19.3 km/h 62 % 0 in /  0.0 mm
18:17 69.4 °F /  20.8 °C 55.9 °F /  13.3 °C 30 in /  1015.8 hPa WNW 2 mph /  3.2 km/h 12 mph /  19.3 km/h 62 % 0 in /  0.0 mm
18:22 69.8 °F /  21.0 °C 56.1 °F /  13.4 °C 30 in /  1015.8 hPa WNW 4 mph /  6.4 km/h 12 mph /  19.3 km/h 62 % 0 in /  0.0 mm
18:32 70 °F /  21.1 °C 55.4 °F /  13.0 °C 30 in /  1015.8 hPa WNW 9 mph /  14.5 km/h 16 mph /  25.7 km/h 60 % 0 in /  0.0 mm
18:37 69.6 °F /  20.9 °C 55.6 °F /  13.1 °C 30 in /  1015.8 hPa WNW 5 mph /  8.0 km/h 16 mph /  25.7 km/h 61 % 0 in /  0.0 mm
18:42 69.6 °F /  20.9 °C 55.6 °F /  13.1 °C 30 in /  1015.8 hPa West 7 mph /  11.3 km/h 16 mph /  25.7 km/h 61 % 0 in /  0.0 mm
18:52 70 °F /  21.1 °C 55.4 °F /  13.0 °C 30 in /  1015.8 hPa WNW 7 mph /  11.3 km/h 13 mph /  20.9 km/h 60 % 0 in /  0.0 mm
19:02 70 °F /  21.1 °C 55.4 °F /  13.0 °C 30 in /  1015.8 hPa NW 3 mph /  4.8 km/h 13 mph /  20.9 km/h 60 % 0 in /  0.0 mm
19:12 69.6 °F /  20.9 °C 55.6 °F /  13.1 °C 30 in /  1015.8 hPa NNW 4 mph /  6.4 km/h 12 mph /  19.3 km/h 61 % 0 in /  0.0 mm
19:17 69.8 °F /  21.0 °C 55.8 °F /  13.2 °C 30 in /  1015.5 hPa WNW 1 mph /  1.6 km/h 10 mph /  16.1 km/h 61 % 0 in /  0.0 mm
19:22 70 °F /  21.1 °C 55.9 °F /  13.3 °C 30 in /  1015.5 hPa WNW 3 mph /  4.8 km/h 10 mph /  16.1 km/h 61 % 0 in /  0.0 mm
19:27 70 °F /  21.1 °C 55.9 °F /  13.3 °C 30 in /  1015.5 hPa Calm   8 mph /  12.9 km/h 61 % 0 in /  0.0 mm
19:32 70.2 °F /  21.2 °C 55.2 °F /  12.9 °C 30 in /  1015.5 hPa WNW 10 mph /  16.1 km/h 10 mph /  16.1 km/h 59 % 0 in /  0.0 mm
19:42 70 °F /  21.1 °C 55.4 °F /  13.0 °C 30 in /  1015.5 hPa West 4 mph /  6.4 km/h 13 mph /  20.9 km/h 60 % 0 in /  0.0 mm
19:47 70 °F /  21.1 °C 55.9 °F /  13.3 °C 30 in /  1015.5 hPa NW 4 mph /  6.4 km/h 12 mph /  19.3 km/h 61 % 0 in /  0.0 mm
19:52 69.6 °F /  20.9 °C 55.6 °F /  13.1 °C 30 in /  1015.5 hPa WNW 3 mph /  4.8 km/h 12 mph /  19.3 km/h 61 % 0 in /  0.0 mm
20:02 69.1 °F /  20.6 °C 55.6 °F /  13.1 °C 30 in /  1015.5 hPa WNW 4 mph /  6.4 km/h 10 mph /  16.1 km/h 62 % 0 in /  0.0 mm
20:12 69.3 °F /  20.7 °C 56.1 °F /  13.4 °C 30 in /  1015.5 hPa WNW 5 mph /  8.0 km/h 10 mph /  16.1 km/h 63 % 0 in /  0.0 mm
20:17 68.9 °F /  20.5 °C 55.8 °F /  13.2 °C 30 in /  1015.5 hPa West 4 mph /  6.4 km/h 9 mph /  14.5 km/h 63 % 0 in /  0.0 mm
20:22 68.5 °F /  20.3 °C 55.9 °F /  13.3 °C 30 in /  1015.5 hPa NW 2 mph /  3.2 km/h 8 mph /  12.9 km/h 64 % 0 in /  0.0 mm
20:27 68.4 °F /  20.2 °C 56.1 °F /  13.4 °C 30 in /  1015.5 hPa WNW 2 mph /  3.2 km/h 8 mph /  12.9 km/h 65 % 0 in /  0.0 mm
20:32 68 °F /  20.0 °C 56.3 °F /  13.5 °C 30 in /  1015.5 hPa WNW 3 mph /  4.8 km/h 8 mph /  12.9 km/h 66 % 0 in /  0.0 mm
20:37 67.8 °F /  19.9 °C 56.5 °F /  13.6 °C 30 in /  1015.5 hPa WNW 1 mph /  1.6 km/h 5 mph /  8.0 km/h 67 % 0 in /  0.0 mm
20:42 67.5 °F /  19.7 °C 56.5 °F /  13.6 °C 30 in /  1015.5 hPa WNW 3 mph /  4.8 km/h 5 mph /  8.0 km/h 68 % 0 in /  0.0 mm
20:47 67.3 °F /  19.6 °C 56.8 °F /  13.8 °C 30 in /  1015.5 hPa WNW 4 mph /  6.4 km/h 5 mph /  8.0 km/h 69 % 0 in /  0.0 mm
20:52 66.9 °F /  19.4 °C 56.8 °F /  13.8 °C 30 in /  1015.8 hPa West 2 mph /  3.2 km/h 5 mph /  8.0 km/h 70 % 0 in /  0.0 mm
20:57 66.7 °F /  19.3 °C 56.7 °F /  13.7 °C 30 in /  1015.8 hPa WSW 2 mph /  3.2 km/h 4 mph /  6.4 km/h 70 % 0 in /  0.0 mm
21:02 66.6 °F /  19.2 °C 57.2 °F /  14.0 °C 30 in /  1015.8 hPa West 1 mph /  1.6 km/h 4 mph /  6.4 km/h 72 % 0 in /  0.0 mm
21:12 65.8 °F /  18.8 °C 57.4 °F /  14.1 °C 30 in /  1015.8 hPa WSW 1 mph /  1.6 km/h 4 mph /  6.4 km/h 74 % 0 in /  0.0 mm
21:17 65.7 °F /  18.7 °C 57.6 °F /  14.2 °C 30 in /  1015.8 hPa West 2 mph /  3.2 km/h 5 mph /  8.0 km/h 75 % 0 in /  0.0 mm
21:22 65.5 °F /  18.6 °C 57.7 °F /  14.3 °C 30 in /  1015.8 hPa Calm   5 mph /  8.0 km/h 76 % 0 in /  0.0 mm
21:32 64.9 °F /  18.3 °C 57.9 °F /  14.4 °C 30 in /  1015.8 hPa Calm   3 mph /  4.8 km/h 78 % 0 in /  0.0 mm
21:37 64.8 °F /  18.2 °C 57.7 °F /  14.3 °C 30 in /  1015.8 hPa Calm   3 mph /  4.8 km/h 78 % 0 in /  0.0 mm
21:42 64.6 °F /  18.1 °C 57.9 °F /  14.4 °C 30 in /  1015.8 hPa Calm   3 mph /  4.8 km/h 79 % 0 in /  0.0 mm
21:52 64 °F /  17.8 °C 57.7 °F /  14.3 °C 30 in /  1015.8 hPa Calm   2 mph /  3.2 km/h 80 % 0 in /  0.0 mm
21:57 63.9 °F /  17.7 °C 57.9 °F /  14.4 °C 30 in /  1015.8 hPa Calm   1 mph /  1.6 km/h 81 % 0 in /  0.0 mm
22:02 63.3 °F /  17.4 °C 57.7 °F /  14.3 °C 30 in /  1015.8 hPa Calm   1 mph /  1.6 km/h 82 % 0 in /  0.0 mm
22:12 63 °F /  17.2 °C 57.7 °F /  14.3 °C 30 in /  1015.8 hPa Calm   1 mph /  1.6 km/h 83 % 0 in /  0.0 mm
22:22 62.6 °F /  17.0 °C 58.1 °F /  14.5 °C 30 in /  1015.8 hPa Calm   1 mph /  1.6 km/h 85 % 0 in /  0.0 mm
22:32 62.2 °F /  16.8 °C 57.7 °F /  14.3 °C 30 in /  1015.8 hPa Calm   1 mph /  1.6 km/h 85 % 0 in /  0.0 mm
22:37 62.2 °F /  16.8 °C 57.7 °F /  14.3 °C 30 in /  1015.8 hPa Calm   1 mph /  1.6 km/h 85 % 0 in /  0.0 mm
22:42 62.2 °F /  16.8 °C 57.9 °F /  14.4 °C 30 in /  1015.8 hPa Calm   1 mph /  1.6 km/h 86 % 0 in /  0.0 mm
22:47 62.2 °F /  16.8 °C 57.9 °F /  14.4 °C 30 in /  1015.8 hPa Calm   1 mph /  1.6 km/h 86 % 0 in /  0.0 mm
22:52 62.2 °F /  16.8 °C 57.9 °F /  14.4 °C 30 in /  1015.8 hPa Calm     86 % 0 in /  0.0 mm
22:57 62.2 °F /  16.8 °C 57.9 °F /  14.4 °C 30 in /  1015.8 hPa Calm     86 % 0 in /  0.0 mm
23:02 62.2 °F /  16.8 °C 57.9 °F /  14.4 °C 30 in /  1015.5 hPa Calm     86 % 0 in /  0.0 mm
23:07 61.7 °F /  16.5 °C 57.4 °F /  14.1 °C 30 in /  1015.8 hPa Calm     86 % 0 in /  0.0 mm
23:17 60.8 °F /  16.0 °C 57.2 °F /  14.0 °C 30 in /  1015.8 hPa Calm     88 % 0 in /  0.0 mm
23:22 60.6 °F /  15.9 °C 57.4 °F /  14.1 °C 30 in /  1015.8 hPa Calm     89 % 0 in /  0.0 mm
23:27 61 °F /  16.1 °C 57.7 °F /  14.3 °C 30 in /  1015.8 hPa Calm     89 % 0 in /  0.0 mm
23:32 61 °F /  16.1 °C 57.7 °F /  14.3 °C 30 in /  1015.8 hPa Calm     89 % 0 in /  0.0 mm
23:37 60.6 °F /  15.9 °C 57 °F /  13.9 °C 30 in /  1015.8 hPa Calm     88 % 0 in /  0.0 mm
23:42 60.3 °F /  15.7 °C 56.7 °F /  13.7 °C 30 in /  1015.8 hPa Calm     88 % 0 in /  0.0 mm
23:47 60.1 °F /  15.6 °C 56.8 °F /  13.8 °C 30 in /  1015.8 hPa Calm     89 % 0 in /  0.0 mm
23:52 60.1 °F /  15.6 °C 57.2 °F /  14.0 °C 30 in /  1015.8 hPa Calm     90 % 0 in /  0.0 mm
23:57 60.1 °F /  15.6 °C 57.2 °F /  14.0 °C 30 in /  1015.5 hPa Calm   1 mph /  1.6 km/h 90 % 0 in /  0.0 mm
Meteo18
Compliments of Weather Underground - 4 mb

Script developed by  Jim McMurry - jmcmurry@mwt.net Adapted for the template by  Wim van der Kuil - Leuven-Template.eu

You find our weather info also at:

European Weather Network

Weather Underground

Equipment we use:

Weather-station
Davis Vue

Weather-program
Meteohub

Weather-server
Raspberry PI 2 B+

Provider
1 and 1

Davis Vue

Meteohub

Raspberry PI 2 B+

1 and 1